Latest Weather Observations for Moomba Airport

IDS60801

Issued at 1:32 pm CST Saturday 25 April 2015 (issued every 30 minutes, with the page automatically refreshed every 10 minutes)

About weather observations | Map of weather stations | Latest weather observations for SA | Other Formats
Station Details ID: 017123 Name: MOOMBA AIRPORT Lat: -28.10 Lon: 140.20 Height: 37.8 m
Data from the previous 72 hours. | See also: Recent months at Moomba Airport
Date/Time
CST
Temp
°C
App
Temp
°C
Dew
Point
Rel
Hum
%
Delta-T
°C
Wind Press
QNH
hPa
Press
MSL
hPa
Rain
since 9 am
mm
Dir
 
Spd
km/h
Gust
km/h
Spd
kts
Gust
kts
25/01:30pm 19.4 12.1 7.2 45 6.2 WSW 35 46 19 25 1015.9 1015.8 0.0
25/01:20pm 19.5 12.8 7.3 45 6.2 WSW 32 50 17 27 1015.8 1015.7 0.0
25/01:00pm 19.4 11.8 7.5 46 6.1 WSW 37 48 20 26 1015.9 1015.8 0.0
25/12:30pm 18.9 11.6 7.0 46 6.0 WSW 35 46 19 25 1016.1 1016.0 0.0
25/12:11pm 18.8 11.5 7.3 47 5.8 WSW 35 54 19 29 1016.4 1016.3 0.0
25/12:00pm 18.8 11.4 6.9 46 6.0 WSW 35 48 19 26 1016.6 1016.5 0.0
25/11:42am 18.5 11.5 7.0 47 5.8 WSW 33 52 18 28 1017.1 1017.0 0.0
25/11:30am 18.3 11.3 6.8 47 5.7 WSW 33 46 18 25 1017.2 1017.1 0.0
25/11:00am 17.8 10.9 6.3 47 5.7 SW 32 44 17 24 1017.3 1017.2 0.0
25/10:30am 17.1 10.2 6.3 49 5.3 WSW 32 43 17 23 1017.3 1017.2 0.0
25/10:00am 16.1 9.6 6.3 52 4.8 WSW 30 43 16 23 1017.7 1017.6 0.0
25/09:30am 15.6 9.1 6.3 54 4.5 WSW 30 37 16 20 1017.6 1017.5 0.0
25/09:00am 14.7 7.8 6.3 57 4.0 WSW 32 43 17 23 1017.5 1017.4 0.0
25/08:30am 13.9 7.6 5.8 58 3.8 WSW 28 37 15 20 1017.5 1017.4 0.0
25/08:00am 13.1 7.5 5.5 60 3.6 W 24 32 13 17 1017.2 1017.1 0.0
25/07:30am 12.2 7.9 5.1 62 3.3 W 17 22 9 12 1016.6 1016.5 0.0
25/07:00am 11.1 7.1 4.8 65 2.9 W 15 19 8 10 1016.3 1016.2 0.0
25/06:30am 11.0 7.0 4.9 66 2.8 WSW 15 19 8 10 1016.0 1015.9 0.0
25/06:00am 11.4 6.6 4.8 64 3.0 W 19 22 10 12 1015.8 1015.7 0.0
25/05:30am 11.5 7.5 4.7 63 3.1 WSW 15 19 8 10 1015.6 1015.5 0.0
25/05:00am 12.1 7.7 4.6 60 3.4 WSW 17 22 9 12 1015.3 1015.2 0.0
25/04:30am 12.3 8.3 4.8 60 3.4 WSW 15 17 8 9 1015.0 1014.9 0.0
25/04:00am 13.0 8.6 4.9 58 3.7 WSW 17 22 9 12 1015.0 1014.9 0.0
25/03:30am 13.1 8.7 5.0 58 3.8 WSW 17 20 9 11 1015.0 1014.9 0.0
25/03:00am 13.8 9.0 5.4 57 3.9 WSW 20 26 11 14 1015.0 1014.9 0.0
25/02:30am 13.2 9.8 5.9 61 3.5 WSW 13 17 7 9 1014.8 1014.7 0.0
25/02:00am 14.1 11.4 5.7 57 4.0 WSW 9 11 5 6 1014.8 1014.7 0.0
25/01:30am 15.1 10.9 5.9 54 4.4 SW 17 24 9 13 1014.9 1014.8 0.0
25/01:00am 15.6 11.6 6.6 55 4.4 SW 17 20 9 11 1015.0 1014.9 0.0
25/12:30am 16.2 11.8 7.4 56 4.4 SW 20 28 11 15 1014.9 1014.8 0.0
25/12:00am 16.7 12.8 8.7 59 4.1 SW 19 24 10 13 1014.8 1014.7 0.0
 
Date/Time
CST
Temp
°C
App
Temp
°C
Dew
Point
Rel
Hum
%
Delta-T
°C
Wind Press
QNH
hPa
Press
MSL
hPa
Rain
since 9 am
mm
Dir
 
Spd
km/h
Gust
km/h
Spd
kts
Gust
kts
24/11:30pm 17.1 14.0 8.8 58 4.3 SW 15 20 8 11 1014.7 1014.6 0.0
24/11:00pm 17.6 14.1 8.7 56 4.6 SW 17 22 9 12 1014.6 1014.5 0.0
24/10:30pm 18.1 14.0 8.7 54 4.9 SW 20 28 11 15 1014.5 1014.4 0.0
24/10:00pm 18.6 13.3 6.8 46 5.9 WSW 24 30 13 16 1014.3 1014.2 0.0
24/09:30pm 17.6 13.7 5.5 45 5.9 WNW 15 17 8 9 1013.8 1013.7 0.0
24/09:00pm 18.4 14.6 5.6 43 6.3 W 15 19 8 10 1013.6 1013.5 0.0
24/08:30pm 18.5 14.5 5.0 41 6.5 W 15 19 8 10 1013.4 1013.3 0.0
24/08:00pm 18.6 15.0 4.8 40 6.6 W 13 15 7 8 1013.2 1013.1 0.0
24/07:30pm 19.6 15.5 4.5 37 7.3 WSW 15 19 8 10 1012.9 1012.8 0.0
24/07:00pm 20.5 16.0 4.1 34 7.9 WSW 17 19 9 10 1012.5 1012.4 0.0
24/06:30pm 21.6 16.4 3.3 30 8.8 WSW 20 24 11 13 1012.1 1012.0 0.0
24/06:00pm 22.6 16.2 3.2 28 9.3 W 26 33 14 18 1011.6 1011.5 0.0
24/05:30pm 23.5 17.0 2.9 26 9.9 WSW 26 33 14 18 1011.2 1011.1 0.0
24/05:00pm 24.3 18.1 4.1 27 10.0 W 26 35 14 19 1011.0 1010.9 0.0
24/04:30pm 24.7 17.4 4.5 27 10.1 WSW 32 43 17 23 1010.9 1010.8 0.0
24/04:00pm 25.0 18.8 6.2 30 9.7 WSW 28 35 15 19 1010.8 1010.7 0.0
24/03:30pm 25.1 18.9 6.3 30 9.7 WSW 28 37 15 20 1010.7 1010.6 0.0
24/03:00pm 24.9 19.2 6.6 31 9.5 WSW 26 35 14 19 1010.9 1010.8 0.0
24/02:30pm 24.7 19.3 6.4 31 9.5 WSW 24 35 13 19 1011.0 1010.9 0.0
24/02:00pm 24.8 19.4 6.5 31 9.5 W 24 35 13 19 1011.2 1011.1 0.0
24/01:30pm 24.3 18.8 6.1 31 9.3 WSW 24 35 13 19 1011.4 1011.3 0.0
24/01:00pm 24.4 19.4 6.6 32 9.2 WSW 22 35 12 19 1011.8 1011.7 0.0
24/12:30pm 24.1 18.3 6.4 32 9.1 WSW 26 37 14 20 1012.3 1012.2 0.0
24/12:00pm 23.6 17.9 6.8 34 8.7 WSW 26 33 14 18 1012.7 1012.6 0.0
24/11:30am 23.0 18.1 7.1 36 8.2 WSW 22 33 12 18 1013.2 1013.1 0.0
24/11:00am 22.3 17.4 6.9 37 7.9 WSW 22 32 12 17 1013.5 1013.4 0.0
24/10:30am 22.1 17.7 7.5 39 7.6 WSW 20 30 11 16 1014.0 1013.9 0.0
24/10:00am 21.2 17.4 7.4 41 7.1 WSW 17 22 9 12 1014.3 1014.2 0.0
24/09:30am 20.0 16.2 7.7 45 6.3 WSW 17 19 9 10 1014.4 1014.3 0.0
24/09:00am 18.4 14.9 7.2 48 5.6 W 15 19 8 10 1014.4 1014.3 0.0
24/08:30am 16.7 12.7 6.8 52 4.9 W 17 20 9 11 1014.2 1014.1 0.0
24/08:00am 15.3 11.6 6.3 55 4.4 W 15 20 8 11 1013.9 1013.8 0.0
24/07:30am 14.2 10.4 5.8 57 4.0 WNW 15 19 8 10 1013.5 1013.4 0.0
24/07:00am 13.6 10.2 6.0 60 3.6 WNW 13 17 7 9 1013.2 1013.1 0.0
24/06:30am 13.1 9.2 5.5 60 3.6 WNW 15 19 8 10 1013.0 1012.9 0.0
24/06:00am 13.5 9.7 5.7 59 3.7 WNW 15 19 8 10 1012.7 1012.6 0.0
24/05:30am 13.7 10.2 5.6 58 3.8 WNW 13 15 7 8 1012.5 1012.4 0.0
24/05:00am 14.5 10.7 5.8 56 4.1 WNW 15 17 8 9 1012.4 1012.3 0.0
24/04:30am 14.9 10.8 6.0 55 4.3 WNW 17 19 9 10 1012.3 1012.2 0.0
24/04:00am 14.9 11.2 6.2 56 4.2 NW 15 19 8 10 1012.2 1012.1 0.0
24/03:30am 14.7 10.9 6.0 56 4.2 WNW 15 17 8 9 1012.2 1012.1 0.0
24/03:00am 14.9 11.1 6.0 55 4.3 WNW 15 17 8 9 1012.3 1012.2 0.0
24/02:30am 15.0 11.6 5.8 54 4.4 NW 13 17 7 9 1012.5 1012.4 0.0
24/02:00am 15.2 11.8 5.7 53 4.5 NW 13 17 7 9 1012.7 1012.6 0.0
24/01:30am 14.6 10.8 5.7 55 4.2 NW 15 17 8 9 1013.1 1013.0 0.0
24/01:00am 15.1 11.7 5.9 54 4.4 NW 13 15 7 8 1013.4 1013.3 0.0
24/12:30am 15.4 12.4 6.1 54 4.5 NW 11 13 6 7 1013.4 1013.3 0.0
24/12:00am 16.1 13.2 6.3 52 4.8 NNW 11 11 6 6 1013.5 1013.4 0.0
 
Date/Time
CST
Temp
°C
App
Temp
°C
Dew
Point
Rel
Hum
%
Delta-T
°C
Wind Press
QNH
hPa
Press
MSL
hPa
Rain
since 9 am
mm
Dir
 
Spd
km/h
Gust
km/h
Spd
kts
Gust
kts
23/11:30pm 16.1 13.9 6.3 52 4.8 NNW 7 9 4 5 1013.5 1013.4 0.0
23/11:00pm 16.5 14.5 6.1 50 5.1 NNW 6 7 3 4 1014.0 1013.9 0.0
23/10:30pm 16.0 15.1 6.2 52 4.8 CALM 0 0 0 0 1014.3 1014.2 0.0
23/10:00pm 16.0 15.1 5.9 51 4.9 CALM 0 0 0 0 1014.5 1014.4 0.0
23/09:30pm 16.3 15.3 5.6 49 5.1 CALM 0 0 0 0 1014.6 1014.5 0.0
23/09:00pm 16.4 15.4 5.7 49 5.2 CALM 0 0 0 0 1014.7 1014.6 0.0
23/08:30pm 17.5 15.3 5.1 44 6.0 SSW 6 7 3 4 1015.0 1014.9 0.0
23/08:00pm 17.6 16.0 4.5 42 6.2 SSW 2 6 1 3 1015.1 1015.0 0.0
23/07:30pm 18.5 15.8 3.9 38 6.9 SSW 7 9 4 5 1015.0 1014.9 0.0
23/07:00pm 19.2 16.4 3.4 35 7.4 SSW 7 9 4 5 1014.9 1014.8 0.0
23/06:30pm 20.2 17.1 3.4 33 8.0 SW 9 13 5 7 1014.6 1014.5 0.0
23/06:00pm 21.0 17.4 3.2 31 8.4 SSW 11 15 6 8 1014.4 1014.3 0.0
23/05:30pm 21.7 17.7 2.9 29 8.9 SW 13 19 7 10 1013.9 1013.8 0.0
23/05:00pm 21.9 17.6 3.1 29 9.0 SW 15 19 8 10 1014.2 1014.1 0.0
23/04:30pm 22.2 18.1 2.3 27 9.4 WSW 13 19 7 10 1014.0 1013.9 0.0
23/04:00pm 22.4 17.9 2.0 26 9.6 SW 15 20 8 11 1014.1 1014.0 0.0
23/03:30pm 22.4 18.3 2.5 27 9.4 SW 13 17 7 9 1014.1 1014.0 0.0
23/03:00pm 22.9 18.9 2.9 27 9.6 SW 13 20 7 11 1014.2 1014.1 0.0
23/02:30pm 23.1 19.1 2.6 26 9.8 SW 13 19 7 10 1014.4 1014.3 0.0
23/02:00pm 23.2 19.2 2.7 26 9.8 SSW 13 19 7 10 1014.6 1014.5 0.0
23/01:30pm 22.6 19.7 2.7 27 9.5 S 7 11 4 6 1014.9 1014.8 0.0
23/01:00pm 22.8 19.2 2.8 27 9.6 WSW 11 22 6 12 1015.4 1015.3 0.0
23/12:30pm 22.3 19.6 2.9 28 9.2 WSW 6 11 3 6 1016.1 1016.0 0.0
23/12:00pm 22.9 21.2 3.9 29 9.3 S 2 7 1 4 1016.7 1016.6 0.0
23/11:30am 21.3 18.7 3.0 30 8.7 SSE 6 11 3 6 1017.4 1017.3 0.0
23/11:00am 21.2 17.7 3.4 31 8.5 E 11 17 6 9 1017.6 1017.5 0.0
23/10:30am 20.5 17.5 4.1 34 7.9 E 9 15 5 8 1017.9 1017.8 0.0
23/10:00am 20.0 16.8 4.9 37 7.4 E 11 17 6 9 1018.1 1018.0 0.0
23/09:30am 18.4 15.7 5.6 43 6.2 E 9 13 5 7 1018.3 1018.2 0.0
23/09:00am 16.5 13.4 5.5 48 5.3 SE 11 13 6 7 1018.3 1018.2 0.0
23/08:30am 15.6 14.8 6.6 55 4.4 CALM 0 6 0 3 1018.4 1018.3 0.0
23/08:00am 14.7 12.2 6.5 58 4.0 SSE 9 13 5 7 1017.9 1017.8 0.0
23/07:30am 14.1 12.0 6.7 61 3.6 SE 7 9 4 5 1017.5 1017.4 0.0
23/07:00am 12.7 9.9 7.0 68 2.8 SE 11 15 6 8 1017.6 1017.5 0.0
23/06:30am 12.8 10.0 6.8 67 2.9 SSE 11 13 6 7 1017.3 1017.2 0.0
23/06:00am 12.8 10.0 7.0 68 2.8 S 11 13 6 7 1017.5 1017.4 0.0
23/05:30am 12.1 9.7 7.0 71 2.4 SSW 9 11 5 6 1017.3 1017.2 0.0
23/05:00am 12.5 10.5 7.2 70 2.6 S 7 9 4 5 1017.2 1017.1 0.0
23/04:30am 12.0 10.1 6.9 71 2.4 SW 6 7 3 4 1017.5 1017.4 0.0
23/04:00am 11.8 9.7 6.7 71 2.4 SW 7 7 4 4 1017.7 1017.6 0.0
23/03:30am 12.0 9.9 6.7 70 2.5 SSW 7 9 4 5 1017.5 1017.4 0.0
23/03:00am 11.8 9.7 6.5 70 2.5 SSW 7 9 4 5 1017.7 1017.6 0.0
23/02:30am 11.7 9.5 6.2 69 2.6 SSW 7 9 4 5 1018.1 1018.0 0.0
23/02:00am 12.0 9.8 6.1 67 2.8 SSW 7 9 4 5 1018.4 1018.3 0.0
23/01:30am 12.5 10.3 6.1 65 3.0 SSW 7 9 4 5 1018.8 1018.7 0.0
23/01:00am 12.4 10.1 5.8 64 3.1 SSW 7 9 4 5 1019.0 1018.9 0.0
23/12:30am 12.8 10.6 5.5 61 3.4 SSW 6 7 3 4 1019.1 1019.0 0.0
23/12:00am 13.1 10.7 5.3 59 3.6 SSW 7 7 4 4 1019.4 1019.3 0.0
 
Date/Time
CST
Temp
°C
App
Temp
°C
Dew
Point
Rel
Hum
%
Delta-T
°C
Wind Press
QNH
hPa
Press
MSL
hPa
Rain
since 9 am
mm
Dir
 
Spd
km/h
Gust
km/h
Spd
kts
Gust
kts
22/11:30pm 13.0 10.5 4.7 57 3.8 SW 7 9 4 5 1019.5 1019.4 0.0
22/11:00pm 12.9 10.4 4.6 57 3.8 SW 7 9 4 5 1019.6 1019.5 0.0
22/10:30pm 12.9 10.3 4.1 55 4.0 SW 7 9 4 5 1019.9 1019.8 0.0
22/10:00pm 13.9 10.5 3.9 51 4.6 SSW 11 13 6 7 1020.0 1019.9 0.0
22/09:30pm 14.2 11.1 3.7 49 4.8 SSW 9 11 5 6 1020.0 1019.9 0.0
22/09:00pm 15.5 12.0 3.6 45 5.4 S 11 15 6 8 1019.9 1019.8 0.0
22/08:30pm 15.8 12.7 3.6 44 5.6 SSW 9 13 5 7 1019.9 1019.8 0.0
22/08:00pm 16.6 13.0 3.0 40 6.2 S 11 15 6 8 1019.6 1019.5 0.0
22/07:30pm 17.6 13.5 2.4 36 6.9 S 13 17 7 9 1019.3 1019.2 0.0
22/07:00pm 18.2 14.1 2.5 35 7.2 S 13 17 7 9 1019.1 1019.0 0.0
22/06:30pm 18.6 14.5 2.4 34 7.4 S 13 17 7 9 1019.0 1018.9 0.0
22/06:00pm 19.5 14.7 2.4 32 7.9 S 17 20 9 11 1018.9 1018.8 0.0
22/05:30pm 20.2 14.9 2.1 30 8.3 SSE 19 24 10 13 1018.7 1018.6 0.0
22/05:00pm 20.8 15.8 1.6 28 8.8 SSE 17 28 9 15 1018.5 1018.4 0.0
22/04:30pm 20.9 15.5 1.2 27 9.0 SE 19 26 10 14 1018.4 1018.3 0.0
22/04:00pm 21.1 15.6 0.9 26 9.2 SSE 19 26 10 14 1018.4 1018.3 0.0
22/03:30pm 21.2 16.1 1.0 26 9.2 SE 17 24 9 13 1018.6 1018.5 0.0
22/03:00pm 20.9 15.6 1.7 28 8.8 S 19 26 10 14 1018.9 1018.8 0.0
22/02:30pm 21.0 15.4 0.2 25 9.3 S 19 30 10 16 1019.2 1019.1 0.0
22/02:00pm 20.8 15.8 1.6 28 8.8 SSE 17 26 9 14 1019.5 1019.4 0.0

Other Formats:

Comma delimited format used in spreadsheet applications
http://www.bom.gov.au/fwo/IDS60801/IDS60801.95481.axf

JavaScript Object Notation format (JSON) in row-major order
http://www.bom.gov.au/fwo/IDS60801/IDS60801.95481.json